Terminal Aerodrome Forecast
Issued by NWS

Home | Current Version | Previous Version | Text Only | Print | Product List | Glossary On
Versions: 1 2 3 4 5 6 7 8 9 10 11 12 13 14 15 16 17 18 19 20 21 22 23 24 25
000
FTUS43 KLSX 162000 AAA
TAFSUS
TAF AMD
KSUS 162059Z 1621/1718 VRB04KT P6SM SCT025
      TEMPO 1621/1622 BKN025
     FM170000 00000KT P6SM SCT250
     FM171300 14005KT P6SM BKN050=

USA.gov is the U.S. government's official web portal to all federal, state and local government web resources and services.